Paso Robles, California
Current Conditions -  °F | °C
As of 12:53 PM on Friday 28 Nov 2014 (Local Time) from KPRB Reporting Station
Clear Clear  
Wind Chill: 71°   Ceiling: Unl
Heat Index: 71°   Visibility: 10mi
Dew Point: 35°   Wind: 0mph
Humidity: 27%   Direction: NA
Pressure: 29.95"   Gusts: NA
Location:  35.67°N, 120.63°W
Report Text: KPRB 282053Z AUTO 00000KT 10SM CLR 22/02 A2995 RMK AO2 SLP140 T02170017 58030 TSNO
Loading
Personal Weather Stations






























Interactive Weather Map New forecast layout! Learn more

10-Day Weather Forecast

Advertisements
Track Severe Weather on mobile